sensor_id;sensor_type;location;lat;lon;timestamp;P1;durP1;ratioP1;P2;durP2;ratioP2
72209;SDS011;60113;48.762;12.302;2022-07-23T00:00:32;24.98;;;8.20;;
72209;SDS011;60113;48.762;12.302;2022-07-23T00:02:57;11.82;;;7.93;;
72209;SDS011;60113;48.762;12.302;2022-07-23T00:05:23;17.63;;;8.38;;
72209;SDS011;60113;48.762;12.302;2022-07-23T00:07:48;13.25;;;8.02;;
72209;SDS011;60113;48.762;12.302;2022-07-23T00:10:14;13.32;;;7.70;;
72209;SDS011;60113;48.762;12.302;2022-07-23T00:12:39;11.20;;;6.88;;
72209;SDS011;60113;48.762;12.302;2022-07-23T00:15:06;14.15;;;7.65;;
72209;SDS011;60113;48.762;12.302;2022-07-23T00:17:32;17.67;;;7.53;;
72209;SDS011;60113;48.762;12.302;2022-07-23T00:19:58;12.35;;;7.88;;
72209;SDS011;60113;48.762;12.302;2022-07-23T00:22:24;16.85;;;7.35;;
72209;SDS011;60113;48.762;12.302;2022-07-23T00:24:49;13.93;;;8.13;;
72209;SDS011;60113;48.762;12.302;2022-07-23T00:27:15;16.13;;;7.20;;
72209;SDS011;60113;48.762;12.302;2022-07-23T00:29:40;13.30;;;7.57;;
72209;SDS011;60113;48.762;12.302;2022-07-23T00:32:06;11.43;;;7.57;;
72209;SDS011;60113;48.762;12.302;2022-07-23T00:34:31;14.70;;;7.85;;
72209;SDS011;60113;48.762;12.302;2022-07-23T00:36:57;14.38;;;8.23;;
72209;SDS011;60113;48.762;12.302;2022-07-23T00:39:22;17.25;;;8.05;;
72209;SDS011;60113;48.762;12.302;2022-07-23T00:41:48;15.02;;;8.40;;
72209;SDS011;60113;48.762;12.302;2022-07-23T00:47:14;14.30;;;8.63;;
72209;SDS011;60113;48.762;12.302;2022-07-23T00:49:33;13.88;;;8.07;;
72209;SDS011;60113;48.762;12.302;2022-07-23T00:51:58;12.63;;;8.18;;
72209;SDS011;60113;48.762;12.302;2022-07-23T00:54:27;19.85;;;8.25;;
72209;SDS011;60113;48.762;12.302;2022-07-23T00:56:53;22.42;;;8.55;;
72209;SDS011;60113;48.762;12.302;2022-07-23T00:59:19;12.98;;;8.82;;
72209;SDS011;60113;48.762;12.302;2022-07-23T01:01:44;10.02;;;7.85;;
72209;SDS011;60113;48.762;12.302;2022-07-23T01:04:13;13.85;;;7.68;;
72209;SDS011;60113;48.762;12.302;2022-07-23T01:06:40;20.48;;;8.15;;
72209;SDS011;60113;48.762;12.302;2022-07-23T01:09:07;13.07;;;8.10;;
72209;SDS011;60113;48.762;12.302;2022-07-23T01:11:34;11.20;;;8.40;;
72209;SDS011;60113;48.762;12.302;2022-07-23T01:14:07;16.17;;;8.80;;
72209;SDS011;60113;48.762;12.302;2022-07-23T01:16:35;18.10;;;8.85;;
72209;SDS011;60113;48.762;12.302;2022-07-23T01:19:00;11.95;;;8.98;;
72209;SDS011;60113;48.762;12.302;2022-07-23T01:21:26;19.42;;;9.10;;
72209;SDS011;60113;48.762;12.302;2022-07-23T01:23:52;25.77;;;9.38;;
72209;SDS011;60113;48.762;12.302;2022-07-23T01:26:17;14.52;;;9.40;;
72209;SDS011;60113;48.762;12.302;2022-07-23T01:28:43;15.15;;;8.90;;
72209;SDS011;60113;48.762;12.302;2022-07-23T01:31:08;14.73;;;8.95;;
72209;SDS011;60113;48.762;12.302;2022-07-23T01:33:34;19.52;;;8.50;;
72209;SDS011;60113;48.762;12.302;2022-07-23T01:35:59;13.25;;;8.77;;
72209;SDS011;60113;48.762;12.302;2022-07-23T01:38:24;18.95;;;8.98;;
72209;SDS011;60113;48.762;12.302;2022-07-23T01:40:50;19.23;;;9.07;;
72209;SDS011;60113;48.762;12.302;2022-07-23T01:43:15;21.67;;;8.95;;
72209;SDS011;60113;48.762;12.302;2022-07-23T01:45:41;12.77;;;9.18;;
72209;SDS011;60113;48.762;12.302;2022-07-23T01:48:07;14.77;;;9.77;;
72209;SDS011;60113;48.762;12.302;2022-07-23T01:50:33;14.02;;;9.88;;
72209;SDS011;60113;48.762;12.302;2022-07-23T01:52:58;12.38;;;9.40;;
72209;SDS011;60113;48.762;12.302;2022-07-23T01:55:24;16.83;;;8.77;;
72209;SDS011;60113;48.762;12.302;2022-07-23T01:57:49;16.67;;;9.30;;
72209;SDS011;60113;48.762;12.302;2022-07-23T02:00:15;10.90;;;8.77;;
72209;SDS011;60113;48.762;12.302;2022-07-23T02:02:40;13.30;;;10.10;;
72209;SDS011;60113;48.762;12.302;2022-07-23T02:05:06;16.13;;;9.73;;
72209;SDS011;60113;48.762;12.302;2022-07-23T02:07:31;15.70;;;10.02;;
72209;SDS011;60113;48.762;12.302;2022-07-23T02:09:57;17.17;;;8.88;;
72209;SDS011;60113;48.762;12.302;2022-07-23T02:12:22;15.82;;;8.93;;
72209;SDS011;60113;48.762;12.302;2022-07-23T02:14:48;14.05;;;8.10;;
72209;SDS011;60113;48.762;12.302;2022-07-23T02:17:13;10.80;;;7.75;;
72209;SDS011;60113;48.762;12.302;2022-07-23T02:19:38;14.02;;;8.15;;
72209;SDS011;60113;48.762;12.302;2022-07-23T02:22:04;17.08;;;8.50;;
72209;SDS011;60113;48.762;12.302;2022-07-23T02:24:29;10.77;;;7.90;;
72209;SDS011;60113;48.762;12.302;2022-07-23T02:26:55;11.38;;;7.85;;
72209;SDS011;60113;48.762;12.302;2022-07-23T02:29:20;12.88;;;7.82;;
72209;SDS011;60113;48.762;12.302;2022-07-23T02:31:46;27.42;;;8.10;;
72209;SDS011;60113;48.762;12.302;2022-07-23T02:34:11;10.20;;;6.80;;
72209;SDS011;60113;48.762;12.302;2022-07-23T02:36:37;12.73;;;6.57;;
72209;SDS011;60113;48.762;12.302;2022-07-23T02:39:04;16.63;;;6.45;;
72209;SDS011;60113;48.762;12.302;2022-07-23T02:41:29;15.07;;;5.95;;
72209;SDS011;60113;48.762;12.302;2022-07-23T02:43:55;11.10;;;6.20;;
72209;SDS011;60113;48.762;12.302;2022-07-23T02:46:20;13.70;;;6.50;;
72209;SDS011;60113;48.762;12.302;2022-07-23T02:48:46;11.48;;;6.55;;
72209;SDS011;60113;48.762;12.302;2022-07-23T02:51:11;10.63;;;6.80;;
72209;SDS011;60113;48.762;12.302;2022-07-23T02:53:37;11.52;;;6.32;;
72209;SDS011;60113;48.762;12.302;2022-07-23T02:56:02;10.02;;;6.10;;
72209;SDS011;60113;48.762;12.302;2022-07-23T02:58:28;9.52;;;5.30;;
72209;SDS011;60113;48.762;12.302;2022-07-23T03:00:53;8.68;;;5.32;;
72209;SDS011;60113;48.762;12.302;2022-07-23T03:03:19;7.88;;;4.70;;
72209;SDS011;60113;48.762;12.302;2022-07-23T03:05:44;10.15;;;4.40;;
72209;SDS011;60113;48.762;12.302;2022-07-23T03:08:10;10.23;;;4.45;;
72209;SDS011;60113;48.762;12.302;2022-07-23T03:10:35;14.80;;;5.25;;
72209;SDS011;60113;48.762;12.302;2022-07-23T03:13:01;12.00;;;4.28;;
72209;SDS011;60113;48.762;12.302;2022-07-23T03:15:26;12.48;;;4.90;;
72209;SDS011;60113;48.762;12.302;2022-07-23T03:17:52;13.43;;;4.85;;
72209;SDS011;60113;48.762;12.302;2022-07-23T03:20:17;10.13;;;4.40;;
72209;SDS011;60113;48.762;12.302;2022-07-23T03:22:43;13.90;;;5.20;;
72209;SDS011;60113;48.762;12.302;2022-07-23T03:25:08;9.98;;;4.80;;
72209;SDS011;60113;48.762;12.302;2022-07-23T03:27:34;7.90;;;4.40;;
72209;SDS011;60113;48.762;12.302;2022-07-23T03:29:59;12.63;;;4.60;;
72209;SDS011;60113;48.762;12.302;2022-07-23T03:32:25;9.25;;;4.60;;
72209;SDS011;60113;48.762;12.302;2022-07-23T03:34:52;12.45;;;4.88;;
72209;SDS011;60113;48.762;12.302;2022-07-23T03:37:18;11.18;;;4.95;;
72209;SDS011;60113;48.762;12.302;2022-07-23T03:39:45;12.82;;;4.78;;
72209;SDS011;60113;48.762;12.302;2022-07-23T03:42:11;9.70;;;4.43;;
72209;SDS011;60113;48.762;12.302;2022-07-23T03:44:36;9.60;;;4.80;;
72209;SDS011;60113;48.762;12.302;2022-07-23T03:47:03;7.70;;;4.30;;
72209;SDS011;60113;48.762;12.302;2022-07-23T03:49:29;7.97;;;4.38;;
72209;SDS011;60113;48.762;12.302;2022-07-23T03:51:54;7.95;;;4.05;;
72209;SDS011;60113;48.762;12.302;2022-07-23T03:54:20;11.95;;;4.47;;
72209;SDS011;60113;48.762;12.302;2022-07-23T03:56:45;7.47;;;4.45;;
72209;SDS011;60113;48.762;12.302;2022-07-23T03:59:11;12.60;;;4.63;;
72209;SDS011;60113;48.762;12.302;2022-07-23T04:01:37;9.93;;;4.45;;
72209;SDS011;60113;48.762;12.302;2022-07-23T04:04:02;8.95;;;4.45;;
72209;SDS011;60113;48.762;12.302;2022-07-23T04:06:28;9.90;;;4.50;;
72209;SDS011;60113;48.762;12.302;2022-07-23T04:08:54;7.78;;;4.38;;
72209;SDS011;60113;48.762;12.302;2022-07-23T04:11:20;13.00;;;4.95;;
72209;SDS011;60113;48.762;12.302;2022-07-23T04:13:45;7.20;;;4.47;;
72209;SDS011;60113;48.762;12.302;2022-07-23T04:16:11;9.15;;;4.63;;
72209;SDS011;60113;48.762;12.302;2022-07-23T04:18:36;9.13;;;5.28;;
72209;SDS011;60113;48.762;12.302;2022-07-23T04:21:02;6.75;;;5.10;;
72209;SDS011;60113;48.762;12.302;2022-07-23T04:23:28;11.30;;;5.25;;
72209;SDS011;60113;48.762;12.302;2022-07-23T04:25:53;11.02;;;5.38;;
72209;SDS011;60113;48.762;12.302;2022-07-23T04:28:18;8.85;;;4.95;;
72209;SDS011;60113;48.762;12.302;2022-07-23T04:30:44;9.13;;;5.15;;
72209;SDS011;60113;48.762;12.302;2022-07-23T04:33:09;10.25;;;5.50;;
72209;SDS011;60113;48.762;12.302;2022-07-23T04:35:35;10.25;;;5.65;;
72209;SDS011;60113;48.762;12.302;2022-07-23T04:38:01;8.20;;;5.03;;
72209;SDS011;60113;48.762;12.302;2022-07-23T04:40:27;12.15;;;6.15;;
72209;SDS011;60113;48.762;12.302;2022-07-23T04:42:53;9.02;;;5.30;;
72209;SDS011;60113;48.762;12.302;2022-07-23T04:45:19;11.57;;;4.78;;
72209;SDS011;60113;48.762;12.302;2022-07-23T04:47:44;7.30;;;5.32;;
72209;SDS011;60113;48.762;12.302;2022-07-23T04:50:10;8.90;;;5.40;;
72209;SDS011;60113;48.762;12.302;2022-07-23T04:52:36;6.00;;;4.05;;
72209;SDS011;60113;48.762;12.302;2022-07-23T04:55:01;7.57;;;4.25;;
72209;SDS011;60113;48.762;12.302;2022-07-23T04:57:27;10.48;;;4.47;;
72209;SDS011;60113;48.762;12.302;2022-07-23T04:59:52;7.60;;;3.88;;
72209;SDS011;60113;48.762;12.302;2022-07-23T05:02:18;15.25;;;4.10;;
72209;SDS011;60113;48.762;12.302;2022-07-23T05:04:43;6.50;;;3.85;;
72209;SDS011;60113;48.762;12.302;2022-07-23T05:07:08;18.15;;;4.50;;
72209;SDS011;60113;48.762;12.302;2022-07-23T05:09:34;6.45;;;4.00;;
72209;SDS011;60113;48.762;12.302;2022-07-23T05:12:00;12.88;;;4.32;;
72209;SDS011;60113;48.762;12.302;2022-07-23T05:14:25;6.97;;;4.65;;
72209;SDS011;60113;48.762;12.302;2022-07-23T05:16:51;7.28;;;3.70;;
72209;SDS011;60113;48.762;12.302;2022-07-23T05:19:16;8.00;;;4.10;;
72209;SDS011;60113;48.762;12.302;2022-07-23T05:21:41;10.15;;;4.63;;
72209;SDS011;60113;48.762;12.302;2022-07-23T05:24:07;5.72;;;3.75;;
72209;SDS011;60113;48.762;12.302;2022-07-23T05:26:33;11.75;;;3.90;;
72209;SDS011;60113;48.762;12.302;2022-07-23T05:28:58;7.57;;;3.95;;
72209;SDS011;60113;48.762;12.302;2022-07-23T05:31:23;9.40;;;4.30;;
72209;SDS011;60113;48.762;12.302;2022-07-23T05:33:49;8.15;;;4.35;;
72209;SDS011;60113;48.762;12.302;2022-07-23T05:36:14;8.15;;;4.45;;
72209;SDS011;60113;48.762;12.302;2022-07-23T05:38:40;6.47;;;4.15;;
72209;SDS011;60113;48.762;12.302;2022-07-23T05:41:05;8.32;;;4.07;;
72209;SDS011;60113;48.762;12.302;2022-07-23T05:43:31;9.68;;;4.15;;
72209;SDS011;60113;48.762;12.302;2022-07-23T05:45:56;7.88;;;3.72;;
72209;SDS011;60113;48.762;12.302;2022-07-23T05:48:22;4.70;;;2.72;;
72209;SDS011;60113;48.762;12.302;2022-07-23T05:50:47;3.75;;;2.63;;
72209;SDS011;60113;48.762;12.302;2022-07-23T05:53:13;6.38;;;3.05;;
72209;SDS011;60113;48.762;12.302;2022-07-23T05:55:38;8.25;;;2.90;;
72209;SDS011;60113;48.762;12.302;2022-07-23T05:58:04;6.30;;;2.97;;
72209;SDS011;60113;48.762;12.302;2022-07-23T06:00:30;6.75;;;2.65;;
72209;SDS011;60113;48.762;12.302;2022-07-23T06:02:56;6.88;;;3.20;;
72209;SDS011;60113;48.762;12.302;2022-07-23T06:05:22;4.18;;;2.08;;
72209;SDS011;60113;48.762;12.302;2022-07-23T06:07:48;7.68;;;2.80;;
72209;SDS011;60113;48.762;12.302;2022-07-23T06:10:13;5.47;;;2.88;;
72209;SDS011;60113;48.762;12.302;2022-07-23T06:12:38;3.63;;;2.42;;
72209;SDS011;60113;48.762;12.302;2022-07-23T06:15:04;3.13;;;2.53;;
72209;SDS011;60113;48.762;12.302;2022-07-23T06:17:30;3.83;;;2.35;;
72209;SDS011;60113;48.762;12.302;2022-07-23T06:19:56;5.22;;;2.47;;
72209;SDS011;60113;48.762;12.302;2022-07-23T06:22:21;6.43;;;2.70;;
72209;SDS011;60113;48.762;12.302;2022-07-23T06:24:47;6.55;;;2.90;;
72209;SDS011;60113;48.762;12.302;2022-07-23T06:27:13;8.68;;;2.72;;
72209;SDS011;60113;48.762;12.302;2022-07-23T06:29:39;4.32;;;2.67;;
72209;SDS011;60113;48.762;12.302;2022-07-23T06:32:06;6.30;;;2.28;;
72209;SDS011;60113;48.762;12.302;2022-07-23T06:34:32;6.10;;;2.53;;
72209;SDS011;60113;48.762;12.302;2022-07-23T06:36:58;4.00;;;2.58;;
72209;SDS011;60113;48.762;12.302;2022-07-23T06:39:23;6.70;;;2.78;;
72209;SDS011;60113;48.762;12.302;2022-07-23T06:41:49;6.70;;;3.00;;
72209;SDS011;60113;48.762;12.302;2022-07-23T06:44:14;11.10;;;3.20;;
72209;SDS011;60113;48.762;12.302;2022-07-23T06:46:40;5.45;;;2.70;;
72209;SDS011;60113;48.762;12.302;2022-07-23T06:49:05;4.80;;;2.83;;
72209;SDS011;60113;48.762;12.302;2022-07-23T06:51:31;4.95;;;3.00;;
72209;SDS011;60113;48.762;12.302;2022-07-23T06:53:56;15.15;;;3.13;;
72209;SDS011;60113;48.762;12.302;2022-07-23T06:56:21;7.05;;;3.00;;
72209;SDS011;60113;48.762;12.302;2022-07-23T06:58:47;3.72;;;2.45;;
72209;SDS011;60113;48.762;12.302;2022-07-23T07:01:12;4.72;;;3.00;;
72209;SDS011;60113;48.762;12.302;2022-07-23T07:03:38;3.53;;;2.50;;
72209;SDS011;60113;48.762;12.302;2022-07-23T07:06:03;7.85;;;2.70;;
72209;SDS011;60113;48.762;12.302;2022-07-23T07:08:29;4.05;;;2.80;;
72209;SDS011;60113;48.762;12.302;2022-07-23T07:10:55;3.70;;;2.53;;
72209;SDS011;60113;48.762;12.302;2022-07-23T07:13:20;4.28;;;2.60;;
72209;SDS011;60113;48.762;12.302;2022-07-23T07:15:46;3.40;;;2.50;;
72209;SDS011;60113;48.762;12.302;2022-07-23T07:18:11;4.22;;;2.88;;
72209;SDS011;60113;48.762;12.302;2022-07-23T07:20:37;5.55;;;3.00;;
72209;SDS011;60113;48.762;12.302;2022-07-23T07:23:02;4.18;;;3.05;;
72209;SDS011;60113;48.762;12.302;2022-07-23T07:25:28;5.80;;;3.63;;
72209;SDS011;60113;48.762;12.302;2022-07-23T07:27:53;7.95;;;5.10;;
72209;SDS011;60113;48.762;12.302;2022-07-23T07:30:18;6.43;;;3.95;;
72209;SDS011;60113;48.762;12.302;2022-07-23T07:32:44;4.30;;;3.20;;
72209;SDS011;60113;48.762;12.302;2022-07-23T07:35:09;5.18;;;3.28;;
72209;SDS011;60113;48.762;12.302;2022-07-23T07:37:35;6.38;;;3.10;;
72209;SDS011;60113;48.762;12.302;2022-07-23T07:40:00;6.22;;;3.10;;
72209;SDS011;60113;48.762;12.302;2022-07-23T07:42:26;5.18;;;3.25;;
72209;SDS011;60113;48.762;12.302;2022-07-23T07:44:51;8.43;;;3.55;;
72209;SDS011;60113;48.762;12.302;2022-07-23T07:47:17;4.80;;;3.33;;
72209;SDS011;60113;48.762;12.302;2022-07-23T07:49:42;4.45;;;3.17;;
72209;SDS011;60113;48.762;12.302;2022-07-23T07:52:08;4.53;;;3.47;;
72209;SDS011;60113;48.762;12.302;2022-07-23T07:54:34;6.20;;;3.83;;
72209;SDS011;60113;48.762;12.302;2022-07-23T07:56:59;5.93;;;3.28;;
72209;SDS011;60113;48.762;12.302;2022-07-23T07:59:25;6.68;;;3.40;;
72209;SDS011;60113;48.762;12.302;2022-07-23T08:01:50;9.65;;;3.70;;
72209;SDS011;60113;48.762;12.302;2022-07-23T08:04:16;6.20;;;3.83;;
72209;SDS011;60113;48.762;12.302;2022-07-23T08:06:41;6.93;;;3.88;;
72209;SDS011;60113;48.762;12.302;2022-07-23T08:09:07;6.68;;;4.00;;
72209;SDS011;60113;48.762;12.302;2022-07-23T08:11:32;4.55;;;3.55;;
72209;SDS011;60113;48.762;12.302;2022-07-23T08:13:58;5.10;;;3.70;;
72209;SDS011;60113;48.762;12.302;2022-07-23T08:16:23;6.03;;;4.03;;
72209;SDS011;60113;48.762;12.302;2022-07-23T08:18:48;7.57;;;4.13;;
72209;SDS011;60113;48.762;12.302;2022-07-23T08:21:14;4.97;;;3.67;;
72209;SDS011;60113;48.762;12.302;2022-07-23T08:23:39;7.45;;;3.80;;
72209;SDS011;60113;48.762;12.302;2022-07-23T08:26:05;4.63;;;3.67;;
72209;SDS011;60113;48.762;12.302;2022-07-23T08:28:30;7.50;;;5.38;;
72209;SDS011;60113;48.762;12.302;2022-07-23T08:30:58;5.65;;;4.43;;
72209;SDS011;60113;48.762;12.302;2022-07-23T08:33:24;4.97;;;3.90;;
72209;SDS011;60113;48.762;12.302;2022-07-23T08:35:50;6.95;;;4.28;;
72209;SDS011;60113;48.762;12.302;2022-07-23T08:38:19;10.32;;;6.85;;
72209;SDS011;60113;48.762;12.302;2022-07-23T08:40:48;8.27;;;3.88;;
72209;SDS011;60113;48.762;12.302;2022-07-23T08:43:19;7.35;;;3.90;;
72209;SDS011;60113;48.762;12.302;2022-07-23T08:45:48;4.88;;;3.83;;
72209;SDS011;60113;48.762;12.302;2022-07-23T08:48:19;5.22;;;3.78;;
72209;SDS011;60113;48.762;12.302;2022-07-23T08:50:50;12.02;;;3.72;;
72209;SDS011;60113;48.762;12.302;2022-07-23T08:53:18;8.18;;;3.85;;
72209;SDS011;60113;48.762;12.302;2022-07-23T08:55:46;11.30;;;4.10;;
72209;SDS011;60113;48.762;12.302;2022-07-23T08:58:13;6.05;;;4.72;;
72209;SDS011;60113;48.762;12.302;2022-07-23T09:00:39;6.53;;;4.15;;
72209;SDS011;60113;48.762;12.302;2022-07-23T09:03:05;9.23;;;4.55;;
72209;SDS011;60113;48.762;12.302;2022-07-23T09:05:30;6.82;;;4.60;;
72209;SDS011;60113;48.762;12.302;2022-07-23T09:08:15;7.25;;;4.50;;
72209;SDS011;60113;48.762;12.302;2022-07-23T09:10:42;5.82;;;4.25;;
72209;SDS011;60113;48.762;12.302;2022-07-23T09:13:22;5.47;;;4.03;;
72209;SDS011;60113;48.762;12.302;2022-07-23T09:15:59;7.50;;;4.35;;
72209;SDS011;60113;48.762;12.302;2022-07-23T09:24:00;5.55;;;4.20;;
72209;SDS011;60113;48.762;12.302;2022-07-23T09:26:31;8.90;;;4.50;;
72209;SDS011;60113;48.762;12.302;2022-07-23T09:29:15;7.38;;;4.72;;
72209;SDS011;60113;48.762;12.302;2022-07-23T09:36:53;7.78;;;4.32;;
72209;SDS011;60113;48.762;12.302;2022-07-23T09:39:26;7.63;;;4.65;;
72209;SDS011;60113;48.762;12.302;2022-07-23T09:41:57;6.18;;;4.95;;
72209;SDS011;60113;48.762;12.302;2022-07-23T09:44:40;7.43;;;4.90;;
72209;SDS011;60113;48.762;12.302;2022-07-23T09:47:07;5.82;;;4.57;;
72209;SDS011;60113;48.762;12.302;2022-07-23T09:49:32;5.15;;;4.20;;
72209;SDS011;60113;48.762;12.302;2022-07-23T09:51:59;6.43;;;4.68;;
72209;SDS011;60113;48.762;12.302;2022-07-23T09:54:33;8.57;;;4.78;;
72209;SDS011;60113;48.762;12.302;2022-07-23T09:57:05;7.28;;;5.30;;
72209;SDS011;60113;48.762;12.302;2022-07-23T09:59:35;6.07;;;5.00;;
72209;SDS011;60113;48.762;12.302;2022-07-23T10:02:02;8.55;;;4.57;;
72209;SDS011;60113;48.762;12.302;2022-07-23T10:04:29;7.78;;;4.72;;
72209;SDS011;60113;48.762;12.302;2022-07-23T10:06:56;7.32;;;4.75;;
72209;SDS011;60113;48.762;12.302;2022-07-23T10:09:25;6.47;;;4.35;;
72209;SDS011;60113;48.762;12.302;2022-07-23T10:11:54;7.28;;;4.50;;
72209;SDS011;60113;48.762;12.302;2022-07-23T10:14:29;5.60;;;4.10;;
72209;SDS011;60113;48.762;12.302;2022-07-23T10:16:56;8.50;;;4.90;;
72209;SDS011;60113;48.762;12.302;2022-07-23T10:19:22;6.60;;;4.40;;
72209;SDS011;60113;48.762;12.302;2022-07-23T10:21:49;4.80;;;4.20;;
72209;SDS011;60113;48.762;12.302;2022-07-23T10:27:09;5.50;;;4.30;;
72209;SDS011;60113;48.762;12.302;2022-07-23T10:38:24;6.45;;;3.92;;
72209;SDS011;60113;48.762;12.302;2022-07-23T10:43:22;7.63;;;3.97;;
72209;SDS011;60113;48.762;12.302;2022-07-23T10:45:48;6.38;;;3.80;;
72209;SDS011;60113;48.762;12.302;2022-07-23T10:48:15;4.63;;;3.42;;
72209;SDS011;60113;48.762;12.302;2022-07-23T10:56:17;3.83;;;3.10;;
72209;SDS011;60113;48.762;12.302;2022-07-23T10:59:03;6.15;;;2.78;;
72209;SDS011;60113;48.762;12.302;2022-07-23T11:01:37;7.63;;;3.90;;
72209;SDS011;60113;48.762;12.302;2022-07-23T11:04:03;5.32;;;3.00;;
72209;SDS011;60113;48.762;12.302;2022-07-23T11:09:28;5.53;;;3.28;;
72209;SDS011;60113;48.762;12.302;2022-07-23T11:15:02;6.10;;;3.20;;
72209;SDS011;60113;48.762;12.302;2022-07-23T11:17:28;5.05;;;3.28;;
72209;SDS011;60113;48.762;12.302;2022-07-23T11:25:13;3.95;;;3.22;;
72209;SDS011;60113;48.762;12.302;2022-07-23T11:27:54;6.93;;;3.03;;
72209;SDS011;60113;48.762;12.302;2022-07-23T11:33:15;4.30;;;3.08;;
72209;SDS011;60113;48.762;12.302;2022-07-23T11:35:39;7.68;;;3.17;;
72209;SDS011;60113;48.762;12.302;2022-07-23T11:38:06;4.78;;;2.92;;
72209;SDS011;60113;48.762;12.302;2022-07-23T11:40:38;2.92;;;2.63;;
72209;SDS011;60113;48.762;12.302;2022-07-23T11:43:04;5.22;;;2.80;;
72209;SDS011;60113;48.762;12.302;2022-07-23T11:45:39;5.60;;;2.95;;
72209;SDS011;60113;48.762;12.302;2022-07-23T11:48:06;5.70;;;2.97;;
72209;SDS011;60113;48.762;12.302;2022-07-23T11:50:34;4.95;;;2.85;;
72209;SDS011;60113;48.762;12.302;2022-07-23T11:53:00;3.85;;;2.95;;
72209;SDS011;60113;48.762;12.302;2022-07-23T11:55:26;4.10;;;3.08;;
72209;SDS011;60113;48.762;12.302;2022-07-23T11:57:53;3.33;;;2.85;;
72209;SDS011;60113;48.762;12.302;2022-07-23T12:00:23;3.63;;;2.80;;
72209;SDS011;60113;48.762;12.302;2022-07-23T12:02:51;5.60;;;2.80;;
72209;SDS011;60113;48.762;12.302;2022-07-23T12:05:25;6.45;;;2.63;;
72209;SDS011;60113;48.762;12.302;2022-07-23T12:07:53;4.55;;;2.88;;
72209;SDS011;60113;48.762;12.302;2022-07-23T12:12:49;4.03;;;2.78;;
72209;SDS011;60113;48.762;12.302;2022-07-23T12:15:21;5.68;;;2.60;;
72209;SDS011;60113;48.762;12.302;2022-07-23T12:17:49;3.45;;;2.50;;
72209;SDS011;60113;48.762;12.302;2022-07-23T12:20:16;5.07;;;3.10;;
72209;SDS011;60113;48.762;12.302;2022-07-23T12:22:47;4.70;;;3.10;;
72209;SDS011;60113;48.762;12.302;2022-07-23T12:25:18;8.27;;;3.10;;
72209;SDS011;60113;48.762;12.302;2022-07-23T12:27:46;4.78;;;3.03;;
72209;SDS011;60113;48.762;12.302;2022-07-23T12:30:23;7.70;;;3.22;;
72209;SDS011;60113;48.762;12.302;2022-07-23T12:32:52;6.50;;;3.20;;
72209;SDS011;60113;48.762;12.302;2022-07-23T12:35:19;5.20;;;3.15;;
72209;SDS011;60113;48.762;12.302;2022-07-23T12:37:47;5.30;;;2.80;;
72209;SDS011;60113;48.762;12.302;2022-07-23T12:40:22;4.38;;;2.70;;
72209;SDS011;60113;48.762;12.302;2022-07-23T12:42:53;5.97;;;2.67;;
72209;SDS011;60113;48.762;12.302;2022-07-23T12:45:20;4.60;;;2.92;;
72209;SDS011;60113;48.762;12.302;2022-07-23T12:50:35;4.80;;;2.60;;
72209;SDS011;60113;48.762;12.302;2022-07-23T12:53:15;5.25;;;2.72;;
72209;SDS011;60113;48.762;12.302;2022-07-23T12:55:44;4.88;;;2.83;;
72209;SDS011;60113;48.762;12.302;2022-07-23T12:58:11;5.07;;;2.58;;
72209;SDS011;60113;48.762;12.302;2022-07-23T13:00:57;4.20;;;2.70;;
72209;SDS011;60113;48.762;12.302;2022-07-23T13:06:01;4.03;;;2.95;;
72209;SDS011;60113;48.762;12.302;2022-07-23T13:08:28;7.78;;;3.40;;
72209;SDS011;60113;48.762;12.302;2022-07-23T13:10:55;3.63;;;2.70;;
72209;SDS011;60113;48.762;12.302;2022-07-23T13:13:23;3.45;;;2.88;;
72209;SDS011;60113;48.762;12.302;2022-07-23T13:15:50;7.88;;;3.30;;
72209;SDS011;60113;48.762;12.302;2022-07-23T13:18:15;6.18;;;3.80;;
72209;SDS011;60113;48.762;12.302;2022-07-23T13:20:42;9.75;;;4.20;;
72209;SDS011;60113;48.762;12.302;2022-07-23T13:23:08;3.95;;;3.17;;
72209;SDS011;60113;48.762;12.302;2022-07-23T13:25:34;5.30;;;3.78;;
72209;SDS011;60113;48.762;12.302;2022-07-23T13:27:59;6.72;;;3.80;;
72209;SDS011;60113;48.762;12.302;2022-07-23T13:30:25;4.75;;;3.40;;
72209;SDS011;60113;48.762;12.302;2022-07-23T13:32:51;5.47;;;3.40;;
72209;SDS011;60113;48.762;12.302;2022-07-23T13:35:17;12.45;;;3.75;;
72209;SDS011;60113;48.762;12.302;2022-07-23T13:37:43;5.93;;;3.80;;
72209;SDS011;60113;48.762;12.302;2022-07-23T13:40:09;6.85;;;3.42;;
72209;SDS011;60113;48.762;12.302;2022-07-23T13:42:35;7.63;;;4.47;;
72209;SDS011;60113;48.762;12.302;2022-07-23T13:45:02;7.82;;;4.15;;
72209;SDS011;60113;48.762;12.302;2022-07-23T13:47:28;4.32;;;3.63;;
72209;SDS011;60113;48.762;12.302;2022-07-23T13:49:53;6.32;;;3.60;;
72209;SDS011;60113;48.762;12.302;2022-07-23T13:52:19;7.00;;;3.90;;
72209;SDS011;60113;48.762;12.302;2022-07-23T13:54:44;7.35;;;3.40;;
72209;SDS011;60113;48.762;12.302;2022-07-23T13:57:09;4.88;;;3.67;;
72209;SDS011;60113;48.762;12.302;2022-07-23T13:59:35;9.10;;;3.60;;
72209;SDS011;60113;48.762;12.302;2022-07-23T14:02:02;5.32;;;3.83;;
72209;SDS011;60113;48.762;12.302;2022-07-23T14:04:28;5.60;;;3.58;;
72209;SDS011;60113;48.762;12.302;2022-07-23T14:06:54;8.30;;;3.80;;
72209;SDS011;60113;48.762;12.302;2022-07-23T14:09:19;6.63;;;4.10;;
72209;SDS011;60113;48.762;12.302;2022-07-23T14:11:45;9.40;;;3.80;;
72209;SDS011;60113;48.762;12.302;2022-07-23T14:14:10;8.98;;;4.07;;
72209;SDS011;60113;48.762;12.302;2022-07-23T14:16:35;9.13;;;4.50;;
72209;SDS011;60113;48.762;12.302;2022-07-23T14:19:01;7.95;;;4.32;;
72209;SDS011;60113;48.762;12.302;2022-07-23T14:21:27;13.52;;;4.43;;
72209;SDS011;60113;48.762;12.302;2022-07-23T14:23:52;6.65;;;4.60;;
72209;SDS011;60113;48.762;12.302;2022-07-23T14:26:18;8.77;;;4.13;;
72209;SDS011;60113;48.762;12.302;2022-07-23T14:28:44;5.03;;;3.83;;
72209;SDS011;60113;48.762;12.302;2022-07-23T14:31:09;5.63;;;4.30;;
72209;SDS011;60113;48.762;12.302;2022-07-23T14:33:35;8.10;;;4.03;;
72209;SDS011;60113;48.762;12.302;2022-07-23T14:36:00;5.32;;;3.63;;
72209;SDS011;60113;48.762;12.302;2022-07-23T14:38:26;6.90;;;3.92;;
72209;SDS011;60113;48.762;12.302;2022-07-23T14:40:52;12.57;;;4.13;;
72209;SDS011;60113;48.762;12.302;2022-07-23T14:43:17;7.78;;;3.45;;
72209;SDS011;60113;48.762;12.302;2022-07-23T14:45:43;6.07;;;3.88;;
72209;SDS011;60113;48.762;12.302;2022-07-23T14:48:08;6.18;;;3.63;;
72209;SDS011;60113;48.762;12.302;2022-07-23T14:50:33;5.97;;;4.57;;
72209;SDS011;60113;48.762;12.302;2022-07-23T14:52:59;6.88;;;3.85;;
72209;SDS011;60113;48.762;12.302;2022-07-23T14:55:24;6.07;;;3.90;;
72209;SDS011;60113;48.762;12.302;2022-07-23T14:57:50;5.38;;;4.18;;
72209;SDS011;60113;48.762;12.302;2022-07-23T15:00:16;6.20;;;4.43;;
72209;SDS011;60113;48.762;12.302;2022-07-23T15:02:41;4.95;;;3.90;;
72209;SDS011;60113;48.762;12.302;2022-07-23T15:05:07;6.85;;;4.43;;
72209;SDS011;60113;48.762;12.302;2022-07-23T15:07:32;10.40;;;4.97;;
72209;SDS011;60113;48.762;12.302;2022-07-23T15:09:58;9.68;;;4.90;;
72209;SDS011;60113;48.762;12.302;2022-07-23T15:12:24;11.65;;;5.75;;
72209;SDS011;60113;48.762;12.302;2022-07-23T15:14:50;17.77;;;6.72;;
72209;SDS011;60113;48.762;12.302;2022-07-23T15:17:15;24.67;;;9.30;;
72209;SDS011;60113;48.762;12.302;2022-07-23T15:19:41;24.40;;;9.18;;
72209;SDS011;60113;48.762;12.302;2022-07-23T15:22:06;22.83;;;8.38;;